sensor_id;sensor_type;location;lat;lon;timestamp;P1;durP1;ratioP1;P2;durP2;ratioP2
75614;SDS011;64199;48.578;-4.520;2023-05-27T00:02:09;3.40;;;1.90;;
75614;SDS011;64199;48.578;-4.520;2023-05-27T00:04:38;5.55;;;2.35;;
75614;SDS011;64199;48.578;-4.520;2023-05-27T00:07:04;3.78;;;2.47;;
75614;SDS011;64199;48.578;-4.520;2023-05-27T00:09:30;4.32;;;2.08;;
75614;SDS011;64199;48.578;-4.520;2023-05-27T00:11:56;5.68;;;2.50;;
75614;SDS011;64199;48.578;-4.520;2023-05-27T00:14:22;8.80;;;2.90;;
75614;SDS011;64199;48.578;-4.520;2023-05-27T00:16:50;6.72;;;2.30;;
75614;SDS011;64199;48.578;-4.520;2023-05-27T00:19:21;6.18;;;2.30;;
75614;SDS011;64199;48.578;-4.520;2023-05-27T00:21:50;4.40;;;2.28;;
75614;SDS011;64199;48.578;-4.520;2023-05-27T00:24:25;5.88;;;2.67;;
75614;SDS011;64199;48.578;-4.520;2023-05-27T00:26:55;6.20;;;2.65;;
75614;SDS011;64199;48.578;-4.520;2023-05-27T00:29:22;6.10;;;2.22;;
75614;SDS011;64199;48.578;-4.520;2023-05-27T00:31:51;4.75;;;2.28;;
75614;SDS011;64199;48.578;-4.520;2023-05-27T00:34:23;4.93;;;2.50;;
75614;SDS011;64199;48.578;-4.520;2023-05-27T00:36:52;4.55;;;1.90;;
75614;SDS011;64199;48.578;-4.520;2023-05-27T00:39:18;6.20;;;2.50;;
75614;SDS011;64199;48.578;-4.520;2023-05-27T00:41:52;6.90;;;2.05;;
75614;SDS011;64199;48.578;-4.520;2023-05-27T00:44:23;3.75;;;2.00;;
75614;SDS011;64199;48.578;-4.520;2023-05-27T00:46:48;5.45;;;2.20;;
75614;SDS011;64199;48.578;-4.520;2023-05-27T00:49:16;5.85;;;2.28;;
75614;SDS011;64199;48.578;-4.520;2023-05-27T00:51:44;4.28;;;2.00;;
75614;SDS011;64199;48.578;-4.520;2023-05-27T00:54:10;5.93;;;2.58;;
75614;SDS011;64199;48.578;-4.520;2023-05-27T00:56:39;6.03;;;2.38;;
75614;SDS011;64199;48.578;-4.520;2023-05-27T00:59:13;3.42;;;2.00;;
75614;SDS011;64199;48.578;-4.520;2023-05-27T01:01:39;6.13;;;2.40;;
75614;SDS011;64199;48.578;-4.520;2023-05-27T01:04:08;3.45;;;1.88;;
75614;SDS011;64199;48.578;-4.520;2023-05-27T01:17:00;5.55;;;2.20;;
75614;SDS011;64199;48.578;-4.520;2023-05-27T01:19:35;4.75;;;2.10;;
75614;SDS011;64199;48.578;-4.520;2023-05-27T01:22:07;9.63;;;1.98;;
75614;SDS011;64199;48.578;-4.520;2023-05-27T01:24:37;4.07;;;2.08;;
75614;SDS011;64199;48.578;-4.520;2023-05-27T01:27:03;6.60;;;2.10;;
75614;SDS011;64199;48.578;-4.520;2023-05-27T01:29:29;5.80;;;2.03;;
75614;SDS011;64199;48.578;-4.520;2023-05-27T01:32:12;7.22;;;2.10;;
75614;SDS011;64199;48.578;-4.520;2023-05-27T01:37:25;5.78;;;2.10;;
75614;SDS011;64199;48.578;-4.520;2023-05-27T01:39:54;5.00;;;2.08;;
75614;SDS011;64199;48.578;-4.520;2023-05-27T01:42:21;4.93;;;2.20;;
75614;SDS011;64199;48.578;-4.520;2023-05-27T01:44:47;5.50;;;2.33;;
75614;SDS011;64199;48.578;-4.520;2023-05-27T01:47:14;4.30;;;2.40;;
75614;SDS011;64199;48.578;-4.520;2023-05-27T01:49:40;4.10;;;2.03;;
75614;SDS011;64199;48.578;-4.520;2023-05-27T01:52:06;5.30;;;2.13;;
75614;SDS011;64199;48.578;-4.520;2023-05-27T01:54:34;4.33;;;2.03;;
75614;SDS011;64199;48.578;-4.520;2023-05-27T01:57:00;3.72;;;1.92;;
75614;SDS011;64199;48.578;-4.520;2023-05-27T01:59:26;6.00;;;2.20;;
75614;SDS011;64199;48.578;-4.520;2023-05-27T02:01:52;4.95;;;1.98;;
75614;SDS011;64199;48.578;-4.520;2023-05-27T02:04:18;5.55;;;2.53;;
75614;SDS011;64199;48.578;-4.520;2023-05-27T02:06:44;3.45;;;2.10;;
75614;SDS011;64199;48.578;-4.520;2023-05-27T02:09:09;4.03;;;2.20;;
75614;SDS011;64199;48.578;-4.520;2023-05-27T02:11:37;5.10;;;2.45;;
75614;SDS011;64199;48.578;-4.520;2023-05-27T02:14:03;4.30;;;2.05;;
75614;SDS011;64199;48.578;-4.520;2023-05-27T02:18:59;4.55;;;1.90;;
75614;SDS011;64199;48.578;-4.520;2023-05-27T02:21:26;6.60;;;2.00;;
75614;SDS011;64199;48.578;-4.520;2023-05-27T02:23:52;6.07;;;2.60;;
75614;SDS011;64199;48.578;-4.520;2023-05-27T02:26:18;3.15;;;1.90;;
75614;SDS011;64199;48.578;-4.520;2023-05-27T02:28:44;6.65;;;2.08;;
75614;SDS011;64199;48.578;-4.520;2023-05-27T02:31:10;6.00;;;2.22;;
75614;SDS011;64199;48.578;-4.520;2023-05-27T02:33:35;4.60;;;2.20;;
75614;SDS011;64199;48.578;-4.520;2023-05-27T02:36:01;2.97;;;1.77;;
75614;SDS011;64199;48.578;-4.520;2023-05-27T02:38:27;4.97;;;1.98;;
75614;SDS011;64199;48.578;-4.520;2023-05-27T02:40:53;3.78;;;1.73;;
75614;SDS011;64199;48.578;-4.520;2023-05-27T02:43:19;3.78;;;1.95;;
75614;SDS011;64199;48.578;-4.520;2023-05-27T02:45:45;3.90;;;2.00;;
75614;SDS011;64199;48.578;-4.520;2023-05-27T02:48:11;3.35;;;1.90;;
75614;SDS011;64199;48.578;-4.520;2023-05-27T02:50:36;4.22;;;2.00;;
75614;SDS011;64199;48.578;-4.520;2023-05-27T02:53:02;2.50;;;1.73;;
75614;SDS011;64199;48.578;-4.520;2023-05-27T02:55:28;5.85;;;2.08;;
75614;SDS011;64199;48.578;-4.520;2023-05-27T02:57:54;2.83;;;1.70;;
75614;SDS011;64199;48.578;-4.520;2023-05-27T03:00:20;6.25;;;2.13;;
75614;SDS011;64199;48.578;-4.520;2023-05-27T03:02:46;2.97;;;1.90;;
75614;SDS011;64199;48.578;-4.520;2023-05-27T03:05:13;3.30;;;1.98;;
75614;SDS011;64199;48.578;-4.520;2023-05-27T03:07:39;6.45;;;2.55;;
75614;SDS011;64199;48.578;-4.520;2023-05-27T03:10:06;3.33;;;1.58;;
75614;SDS011;64199;48.578;-4.520;2023-05-27T03:12:33;5.43;;;2.22;;
75614;SDS011;64199;48.578;-4.520;2023-05-27T03:14:59;4.28;;;1.80;;
75614;SDS011;64199;48.578;-4.520;2023-05-27T03:17:25;3.03;;;1.70;;
75614;SDS011;64199;48.578;-4.520;2023-05-27T03:19:51;5.30;;;2.15;;
75614;SDS011;64199;48.578;-4.520;2023-05-27T03:22:17;4.75;;;2.20;;
75614;SDS011;64199;48.578;-4.520;2023-05-27T03:24:43;4.97;;;1.73;;
75614;SDS011;64199;48.578;-4.520;2023-05-27T03:27:09;6.07;;;2.13;;
75614;SDS011;64199;48.578;-4.520;2023-05-27T03:29:35;3.22;;;1.40;;
75614;SDS011;64199;48.578;-4.520;2023-05-27T03:32:01;5.13;;;1.83;;
75614;SDS011;64199;48.578;-4.520;2023-05-27T03:34:27;3.83;;;1.58;;
75614;SDS011;64199;48.578;-4.520;2023-05-27T03:36:53;8.15;;;2.10;;
75614;SDS011;64199;48.578;-4.520;2023-05-27T03:39:19;3.67;;;1.88;;
75614;SDS011;64199;48.578;-4.520;2023-05-27T03:41:45;4.50;;;2.10;;
75614;SDS011;64199;48.578;-4.520;2023-05-27T03:44:11;3.42;;;1.80;;
75614;SDS011;64199;48.578;-4.520;2023-05-27T03:46:37;4.68;;;1.90;;
75614;SDS011;64199;48.578;-4.520;2023-05-27T03:49:03;3.70;;;1.60;;
75614;SDS011;64199;48.578;-4.520;2023-05-27T03:51:29;5.65;;;1.77;;
75614;SDS011;64199;48.578;-4.520;2023-05-27T03:53:56;4.90;;;1.92;;
75614;SDS011;64199;48.578;-4.520;2023-05-27T03:56:22;4.07;;;1.80;;
75614;SDS011;64199;48.578;-4.520;2023-05-27T03:58:49;3.55;;;1.83;;
75614;SDS011;64199;48.578;-4.520;2023-05-27T04:01:15;3.88;;;1.95;;
75614;SDS011;64199;48.578;-4.520;2023-05-27T04:03:42;4.55;;;2.03;;
75614;SDS011;64199;48.578;-4.520;2023-05-27T04:06:09;3.50;;;1.83;;
75614;SDS011;64199;48.578;-4.520;2023-05-27T04:08:34;4.00;;;2.05;;
75614;SDS011;64199;48.578;-4.520;2023-05-27T04:11:02;4.38;;;1.80;;
75614;SDS011;64199;48.578;-4.520;2023-05-27T04:13:28;6.65;;;1.92;;
75614;SDS011;64199;48.578;-4.520;2023-05-27T04:15:54;4.13;;;1.80;;
75614;SDS011;64199;48.578;-4.520;2023-05-27T04:18:22;3.63;;;2.00;;
75614;SDS011;64199;48.578;-4.520;2023-05-27T04:20:48;3.55;;;1.65;;
75614;SDS011;64199;48.578;-4.520;2023-05-27T04:23:15;4.75;;;2.05;;
75614;SDS011;64199;48.578;-4.520;2023-05-27T04:25:41;4.60;;;1.90;;
75614;SDS011;64199;48.578;-4.520;2023-05-27T04:28:08;4.30;;;1.83;;
75614;SDS011;64199;48.578;-4.520;2023-05-27T04:30:34;3.30;;;1.70;;
75614;SDS011;64199;48.578;-4.520;2023-05-27T04:33:01;3.65;;;1.70;;
75614;SDS011;64199;48.578;-4.520;2023-05-27T04:35:27;3.97;;;1.85;;
75614;SDS011;64199;48.578;-4.520;2023-05-27T04:37:56;5.90;;;2.08;;
75614;SDS011;64199;48.578;-4.520;2023-05-27T04:40:29;3.72;;;1.60;;
75614;SDS011;64199;48.578;-4.520;2023-05-27T04:42:55;4.18;;;1.98;;
75614;SDS011;64199;48.578;-4.520;2023-05-27T04:45:21;3.25;;;1.45;;
75614;SDS011;64199;48.578;-4.520;2023-05-27T04:47:47;4.15;;;1.90;;
75614;SDS011;64199;48.578;-4.520;2023-05-27T04:50:13;3.00;;;1.77;;
75614;SDS011;64199;48.578;-4.520;2023-05-27T04:52:39;4.30;;;1.83;;
75614;SDS011;64199;48.578;-4.520;2023-05-27T04:55:07;2.67;;;1.75;;
75614;SDS011;64199;48.578;-4.520;2023-05-27T04:57:35;4.60;;;1.95;;
75614;SDS011;64199;48.578;-4.520;2023-05-27T05:00:02;3.22;;;1.70;;
75614;SDS011;64199;48.578;-4.520;2023-05-27T05:02:29;3.78;;;1.73;;
75614;SDS011;64199;48.578;-4.520;2023-05-27T05:05:03;3.70;;;1.92;;
75614;SDS011;64199;48.578;-4.520;2023-05-27T05:07:30;4.50;;;1.85;;
75614;SDS011;64199;48.578;-4.520;2023-05-27T05:09:56;2.58;;;1.65;;
75614;SDS011;64199;48.578;-4.520;2023-05-27T05:12:22;3.72;;;1.90;;
75614;SDS011;64199;48.578;-4.520;2023-05-27T05:14:50;2.30;;;1.60;;
75614;SDS011;64199;48.578;-4.520;2023-05-27T05:17:17;4.28;;;1.80;;
75614;SDS011;64199;48.578;-4.520;2023-05-27T05:19:43;4.32;;;1.50;;
75614;SDS011;64199;48.578;-4.520;2023-05-27T05:22:10;5.25;;;1.65;;
75614;SDS011;64199;48.578;-4.520;2023-05-27T05:24:39;2.40;;;1.50;;
75614;SDS011;64199;48.578;-4.520;2023-05-27T05:27:05;4.22;;;1.90;;
75614;SDS011;64199;48.578;-4.520;2023-05-27T05:29:32;3.95;;;1.88;;
75614;SDS011;64199;48.578;-4.520;2023-05-27T05:31:58;3.50;;;1.70;;
75614;SDS011;64199;48.578;-4.520;2023-05-27T05:34:24;3.25;;;1.73;;
75614;SDS011;64199;48.578;-4.520;2023-05-27T05:36:51;4.65;;;2.00;;
75614;SDS011;64199;48.578;-4.520;2023-05-27T05:39:18;3.58;;;1.88;;
75614;SDS011;64199;48.578;-4.520;2023-05-27T05:41:45;3.35;;;1.80;;
75614;SDS011;64199;48.578;-4.520;2023-05-27T05:44:11;2.13;;;1.45;;
75614;SDS011;64199;48.578;-4.520;2023-05-27T05:46:37;4.32;;;2.33;;
75614;SDS011;64199;48.578;-4.520;2023-05-27T05:49:04;3.22;;;1.70;;
75614;SDS011;64199;48.578;-4.520;2023-05-27T05:51:30;3.28;;;1.45;;
75614;SDS011;64199;48.578;-4.520;2023-05-27T05:53:56;2.58;;;1.63;;
75614;SDS011;64199;48.578;-4.520;2023-05-27T05:56:23;3.35;;;1.73;;
75614;SDS011;64199;48.578;-4.520;2023-05-27T05:58:50;3.40;;;1.60;;
75614;SDS011;64199;48.578;-4.520;2023-05-27T06:01:17;3.35;;;1.52;;
75614;SDS011;64199;48.578;-4.520;2023-05-27T06:03:43;4.30;;;2.00;;
75614;SDS011;64199;48.578;-4.520;2023-05-27T06:06:09;2.88;;;1.63;;
75614;SDS011;64199;48.578;-4.520;2023-05-27T06:08:35;3.28;;;1.67;;
75614;SDS011;64199;48.578;-4.520;2023-05-27T06:11:01;3.60;;;1.63;;
75614;SDS011;64199;48.578;-4.520;2023-05-27T06:13:27;2.55;;;1.60;;
75614;SDS011;64199;48.578;-4.520;2023-05-27T06:15:53;2.65;;;1.73;;
75614;SDS011;64199;48.578;-4.520;2023-05-27T06:18:22;1.98;;;1.52;;
75614;SDS011;64199;48.578;-4.520;2023-05-27T06:20:48;3.97;;;1.60;;
75614;SDS011;64199;48.578;-4.520;2023-05-27T06:23:14;1.98;;;1.50;;
75614;SDS011;64199;48.578;-4.520;2023-05-27T06:25:40;3.35;;;1.60;;
75614;SDS011;64199;48.578;-4.520;2023-05-27T06:28:06;4.20;;;1.90;;
75614;SDS011;64199;48.578;-4.520;2023-05-27T06:30:32;3.25;;;1.70;;
75614;SDS011;64199;48.578;-4.520;2023-05-27T06:32:58;5.18;;;1.60;;
75614;SDS011;64199;48.578;-4.520;2023-05-27T06:35:24;3.13;;;1.88;;
75614;SDS011;64199;48.578;-4.520;2023-05-27T06:37:50;2.90;;;1.80;;
75614;SDS011;64199;48.578;-4.520;2023-05-27T06:40:16;3.17;;;1.60;;
75614;SDS011;64199;48.578;-4.520;2023-05-27T06:42:42;4.00;;;1.67;;
75614;SDS011;64199;48.578;-4.520;2023-05-27T06:45:10;4.10;;;1.80;;
75614;SDS011;64199;48.578;-4.520;2023-05-27T06:47:36;3.38;;;1.65;;
75614;SDS011;64199;48.578;-4.520;2023-05-27T06:50:02;5.20;;;1.80;;
75614;SDS011;64199;48.578;-4.520;2023-05-27T06:52:27;4.15;;;1.67;;
75614;SDS011;64199;48.578;-4.520;2023-05-27T06:54:53;3.35;;;1.90;;
75614;SDS011;64199;48.578;-4.520;2023-05-27T06:57:20;4.95;;;1.98;;
75614;SDS011;64199;48.578;-4.520;2023-05-27T06:59:46;3.40;;;1.65;;
75614;SDS011;64199;48.578;-4.520;2023-05-27T07:02:11;2.70;;;1.75;;
75614;SDS011;64199;48.578;-4.520;2023-05-27T07:04:37;3.78;;;1.60;;
75614;SDS011;64199;48.578;-4.520;2023-05-27T07:07:03;2.80;;;1.42;;
75614;SDS011;64199;48.578;-4.520;2023-05-27T07:09:29;3.35;;;1.55;;
75614;SDS011;64199;48.578;-4.520;2023-05-27T07:11:55;4.35;;;1.80;;
75614;SDS011;64199;48.578;-4.520;2023-05-27T07:14:21;3.28;;;1.90;;
75614;SDS011;64199;48.578;-4.520;2023-05-27T07:16:47;4.22;;;1.90;;
75614;SDS011;64199;48.578;-4.520;2023-05-27T07:19:13;4.85;;;2.00;;
75614;SDS011;64199;48.578;-4.520;2023-05-27T07:21:39;4.40;;;1.80;;
75614;SDS011;64199;48.578;-4.520;2023-05-27T07:24:05;9.93;;;2.35;;
75614;SDS011;64199;48.578;-4.520;2023-05-27T07:26:31;5.93;;;2.00;;
75614;SDS011;64199;48.578;-4.520;2023-05-27T07:28:58;5.55;;;2.25;;
75614;SDS011;64199;48.578;-4.520;2023-05-27T07:31:25;3.13;;;1.88;;
75614;SDS011;64199;48.578;-4.520;2023-05-27T07:33:52;3.85;;;2.03;;
75614;SDS011;64199;48.578;-4.520;2023-05-27T07:36:18;4.60;;;1.95;;
75614;SDS011;64199;48.578;-4.520;2023-05-27T07:38:44;7.93;;;1.95;;
75614;SDS011;64199;48.578;-4.520;2023-05-27T07:41:12;6.47;;;2.22;;
75614;SDS011;64199;48.578;-4.520;2023-05-27T07:43:38;5.60;;;1.90;;
75614;SDS011;64199;48.578;-4.520;2023-05-27T07:46:04;2.53;;;1.60;;
75614;SDS011;64199;48.578;-4.520;2023-05-27T07:48:30;5.30;;;1.70;;
75614;SDS011;64199;48.578;-4.520;2023-05-27T07:50:56;4.80;;;2.30;;
75614;SDS011;64199;48.578;-4.520;2023-05-27T07:53:22;6.57;;;2.47;;
75614;SDS011;64199;48.578;-4.520;2023-05-27T07:55:48;5.22;;;2.08;;
75614;SDS011;64199;48.578;-4.520;2023-05-27T07:58:14;4.85;;;2.15;;
75614;SDS011;64199;48.578;-4.520;2023-05-27T08:00:39;4.85;;;2.08;;
75614;SDS011;64199;48.578;-4.520;2023-05-27T08:03:05;4.47;;;2.08;;
75614;SDS011;64199;48.578;-4.520;2023-05-27T08:05:31;5.20;;;2.50;;
75614;SDS011;64199;48.578;-4.520;2023-05-27T08:07:58;5.45;;;2.35;;
75614;SDS011;64199;48.578;-4.520;2023-05-27T08:10:24;7.70;;;2.35;;
75614;SDS011;64199;48.578;-4.520;2023-05-27T08:12:51;7.50;;;2.60;;
75614;SDS011;64199;48.578;-4.520;2023-05-27T08:15:17;8.05;;;2.63;;
75614;SDS011;64199;48.578;-4.520;2023-05-27T08:17:43;6.60;;;2.00;;
75614;SDS011;64199;48.578;-4.520;2023-05-27T08:20:09;7.05;;;2.85;;
75614;SDS011;64199;48.578;-4.520;2023-05-27T08:22:36;13.73;;;2.28;;
75614;SDS011;64199;48.578;-4.520;2023-05-27T08:25:02;8.85;;;2.60;;
75614;SDS011;64199;48.578;-4.520;2023-05-27T08:27:42;29.67;;;3.10;;
75614;SDS011;64199;48.578;-4.520;2023-05-27T08:30:12;5.88;;;2.55;;
75614;SDS011;64199;48.578;-4.520;2023-05-27T08:32:41;6.43;;;2.50;;
75614;SDS011;64199;48.578;-4.520;2023-05-27T08:37:33;12.32;;;2.60;;
75614;SDS011;64199;48.578;-4.520;2023-05-27T08:40:00;7.30;;;2.60;;
75614;SDS011;64199;48.578;-4.520;2023-05-27T08:42:26;8.23;;;2.33;;
75614;SDS011;64199;48.578;-4.520;2023-05-27T08:44:51;9.95;;;2.67;;
75614;SDS011;64199;48.578;-4.520;2023-05-27T08:47:17;5.78;;;2.17;;
75614;SDS011;64199;48.578;-4.520;2023-05-27T08:49:44;9.50;;;2.33;;
75614;SDS011;64199;48.578;-4.520;2023-05-27T08:52:10;6.75;;;2.50;;
75614;SDS011;64199;48.578;-4.520;2023-05-27T08:54:39;9.88;;;2.35;;
75614;SDS011;64199;48.578;-4.520;2023-05-27T08:57:07;8.55;;;2.50;;
75614;SDS011;64199;48.578;-4.520;2023-05-27T08:59:37;6.63;;;2.50;;
75614;SDS011;64199;48.578;-4.520;2023-05-27T09:02:05;6.63;;;2.50;;
75614;SDS011;64199;48.578;-4.520;2023-05-27T09:04:36;6.75;;;2.03;;
75614;SDS011;64199;48.578;-4.520;2023-05-27T09:07:04;11.90;;;2.80;;
75614;SDS011;64199;48.578;-4.520;2023-05-27T09:09:30;7.20;;;2.85;;
75614;SDS011;64199;48.578;-4.520;2023-05-27T09:11:59;8.18;;;2.38;;
75614;SDS011;64199;48.578;-4.520;2023-05-27T09:14:27;5.53;;;2.15;;
75614;SDS011;64199;48.578;-4.520;2023-05-27T09:16:54;6.32;;;2.35;;
75614;SDS011;64199;48.578;-4.520;2023-05-27T09:19:20;6.25;;;2.50;;
75614;SDS011;64199;48.578;-4.520;2023-05-27T09:21:47;4.32;;;2.22;;
75614;SDS011;64199;48.578;-4.520;2023-05-27T09:24:16;7.40;;;2.78;;
75614;SDS011;64199;48.578;-4.520;2023-05-27T09:26:42;5.72;;;2.83;;
75614;SDS011;64199;48.578;-4.520;2023-05-27T09:29:08;9.15;;;2.83;;
75614;SDS011;64199;48.578;-4.520;2023-05-27T09:31:38;7.20;;;2.65;;
75614;SDS011;64199;48.578;-4.520;2023-05-27T09:36:44;7.22;;;2.53;;
75614;SDS011;64199;48.578;-4.520;2023-05-27T09:39:12;5.82;;;2.75;;
75614;SDS011;64199;48.578;-4.520;2023-05-27T09:41:40;7.03;;;2.67;;
75614;SDS011;64199;48.578;-4.520;2023-05-27T09:44:06;7.28;;;2.92;;
75614;SDS011;64199;48.578;-4.520;2023-05-27T09:46:33;6.90;;;3.20;;
75614;SDS011;64199;48.578;-4.520;2023-05-27T09:49:00;5.90;;;2.75;;
75614;SDS011;64199;48.578;-4.520;2023-05-27T09:51:27;7.05;;;2.58;;
75614;SDS011;64199;48.578;-4.520;2023-05-27T09:53:54;4.75;;;2.10;;
75614;SDS011;64199;48.578;-4.520;2023-05-27T09:56:23;6.18;;;2.50;;
75614;SDS011;64199;48.578;-4.520;2023-05-27T09:58:56;5.90;;;2.58;;
75614;SDS011;64199;48.578;-4.520;2023-05-27T10:01:26;6.32;;;2.63;;
75614;SDS011;64199;48.578;-4.520;2023-05-27T10:03:56;12.38;;;2.92;;
75614;SDS011;64199;48.578;-4.520;2023-05-27T10:06:23;7.82;;;2.72;;
75614;SDS011;64199;48.578;-4.520;2023-05-27T10:08:50;5.38;;;2.58;;
75614;SDS011;64199;48.578;-4.520;2023-05-27T10:11:20;4.47;;;2.60;;
75614;SDS011;64199;48.578;-4.520;2023-05-27T10:13:47;5.63;;;2.33;;
75614;SDS011;64199;48.578;-4.520;2023-05-27T10:16:20;6.50;;;2.80;;
75614;SDS011;64199;48.578;-4.520;2023-05-27T10:18:47;5.75;;;2.60;;
75614;SDS011;64199;48.578;-4.520;2023-05-27T10:21:21;6.43;;;2.72;;
75614;SDS011;64199;48.578;-4.520;2023-05-27T10:24:01;9.82;;;3.13;;
75614;SDS011;64199;48.578;-4.520;2023-05-27T10:26:35;5.65;;;2.47;;
75614;SDS011;64199;48.578;-4.520;2023-05-27T10:29:07;6.95;;;2.95;;
75614;SDS011;64199;48.578;-4.520;2023-05-27T10:31:47;6.35;;;2.67;;
75614;SDS011;64199;48.578;-4.520;2023-05-27T10:34:14;9.48;;;2.75;;
75614;SDS011;64199;48.578;-4.520;2023-05-27T10:36:40;10.02;;;3.00;;
75614;SDS011;64199;48.578;-4.520;2023-05-27T10:39:16;9.25;;;2.80;;
75614;SDS011;64199;48.578;-4.520;2023-05-27T10:41:52;6.65;;;2.85;;
75614;SDS011;64199;48.578;-4.520;2023-05-27T10:44:35;9.25;;;3.15;;
75614;SDS011;64199;48.578;-4.520;2023-05-27T10:47:12;7.13;;;2.90;;
75614;SDS011;64199;48.578;-4.520;2023-05-27T10:49:45;7.82;;;3.10;;
75614;SDS011;64199;48.578;-4.520;2023-05-27T10:52:12;7.10;;;2.70;;
75614;SDS011;64199;48.578;-4.520;2023-05-27T10:54:38;6.38;;;2.58;;
75614;SDS011;64199;48.578;-4.520;2023-05-27T10:57:06;6.72;;;3.13;;
75614;SDS011;64199;48.578;-4.520;2023-05-27T10:59:47;5.85;;;3.22;;
75614;SDS011;64199;48.578;-4.520;2023-05-27T11:04:49;7.18;;;3.00;;
75614;SDS011;64199;48.578;-4.520;2023-05-27T11:07:17;10.05;;;3.15;;
75614;SDS011;64199;48.578;-4.520;2023-05-27T11:09:47;6.10;;;2.80;;
75614;SDS011;64199;48.578;-4.520;2023-05-27T11:12:18;8.10;;;3.38;;
75614;SDS011;64199;48.578;-4.520;2023-05-27T11:14:46;7.82;;;3.28;;
75614;SDS011;64199;48.578;-4.520;2023-05-27T11:17:19;4.95;;;2.88;;
75614;SDS011;64199;48.578;-4.520;2023-05-27T11:19:46;5.72;;;2.53;;
75614;SDS011;64199;48.578;-4.520;2023-05-27T11:22:16;9.70;;;3.33;;
75614;SDS011;64199;48.578;-4.520;2023-05-27T11:24:43;9.05;;;3.30;;
75614;SDS011;64199;48.578;-4.520;2023-05-27T11:27:19;7.53;;;2.53;;
75614;SDS011;64199;48.578;-4.520;2023-05-27T11:29:49;4.78;;;2.50;;
75614;SDS011;64199;48.578;-4.520;2023-05-27T11:32:16;7.35;;;3.05;;
75614;SDS011;64199;48.578;-4.520;2023-05-27T11:34:46;6.15;;;2.50;;
75614;SDS011;64199;48.578;-4.520;2023-05-27T11:37:13;5.55;;;2.72;;
75614;SDS011;64199;48.578;-4.520;2023-05-27T11:39:50;6.50;;;2.67;;
75614;SDS011;64199;48.578;-4.520;2023-05-27T11:42:23;7.18;;;3.28;;
75614;SDS011;64199;48.578;-4.520;2023-05-27T11:44:50;8.93;;;3.42;;
75614;SDS011;64199;48.578;-4.520;2023-05-27T11:47:17;8.55;;;3.50;;
75614;SDS011;64199;48.578;-4.520;2023-05-27T11:49:43;8.77;;;3.50;;
75614;SDS011;64199;48.578;-4.520;2023-05-27T11:52:10;8.95;;;2.80;;
75614;SDS011;64199;48.578;-4.520;2023-05-27T11:54:39;8.68;;;2.80;;
75614;SDS011;64199;48.578;-4.520;2023-05-27T11:57:05;8.43;;;2.70;;
75614;SDS011;64199;48.578;-4.520;2023-05-27T11:59:35;6.53;;;3.13;;
75614;SDS011;64199;48.578;-4.520;2023-05-27T12:02:02;7.18;;;2.90;;
75614;SDS011;64199;48.578;-4.520;2023-05-27T12:04:29;6.78;;;3.03;;
75614;SDS011;64199;48.578;-4.520;2023-05-27T12:06:55;5.93;;;2.75;;
75614;SDS011;64199;48.578;-4.520;2023-05-27T12:09:25;7.10;;;2.80;;
75614;SDS011;64199;48.578;-4.520;2023-05-27T12:11:52;8.65;;;3.30;;
75614;SDS011;64199;48.578;-4.520;2023-05-27T12:14:20;7.32;;;3.10;;
75614;SDS011;64199;48.578;-4.520;2023-05-27T12:16:47;6.45;;;2.78;;
75614;SDS011;64199;48.578;-4.520;2023-05-27T12:19:13;7.38;;;2.92;;
75614;SDS011;64199;48.578;-4.520;2023-05-27T12:21:39;5.95;;;2.70;;
75614;SDS011;64199;48.578;-4.520;2023-05-27T12:24:05;8.65;;;2.78;;
75614;SDS011;64199;48.578;-4.520;2023-05-27T12:26:32;6.93;;;2.80;;
75614;SDS011;64199;48.578;-4.520;2023-05-27T12:28:57;8.88;;;3.40;;
75614;SDS011;64199;48.578;-4.520;2023-05-27T12:31:23;5.63;;;2.60;;
75614;SDS011;64199;48.578;-4.520;2023-05-27T12:33:49;7.55;;;3.05;;
75614;SDS011;64199;48.578;-4.520;2023-05-27T12:36:15;8.40;;;3.00;;
75614;SDS011;64199;48.578;-4.520;2023-05-27T12:38:41;7.45;;;3.05;;
75614;SDS011;64199;48.578;-4.520;2023-05-27T12:41:07;8.18;;;3.00;;
75614;SDS011;64199;48.578;-4.520;2023-05-27T12:43:33;9.38;;;2.97;;
75614;SDS011;64199;48.578;-4.520;2023-05-27T12:45:59;6.43;;;2.60;;
75614;SDS011;64199;48.578;-4.520;2023-05-27T12:48:25;9.70;;;3.08;;
75614;SDS011;64199;48.578;-4.520;2023-05-27T12:50:51;5.85;;;2.60;;
75614;SDS011;64199;48.578;-4.520;2023-05-27T12:53:17;7.95;;;2.85;;
75614;SDS011;64199;48.578;-4.520;2023-05-27T12:55:43;8.05;;;3.20;;
75614;SDS011;64199;48.578;-4.520;2023-05-27T12:58:09;8.30;;;2.90;;
75614;SDS011;64199;48.578;-4.520;2023-05-27T13:00:36;7.60;;;2.83;;
75614;SDS011;64199;48.578;-4.520;2023-05-27T13:03:01;10.77;;;3.08;;
75614;SDS011;64199;48.578;-4.520;2023-05-27T13:05:27;5.88;;;2.90;;
75614;SDS011;64199;48.578;-4.520;2023-05-27T13:10:26;7.72;;;3.13;;
75614;SDS011;64199;48.578;-4.520;2023-05-27T13:12:53;7.32;;;3.08;;
75614;SDS011;64199;48.578;-4.520;2023-05-27T13:15:20;6.32;;;2.78;;
75614;SDS011;64199;48.578;-4.520;2023-05-27T13:17:48;6.32;;;2.55;;
75614;SDS011;64199;48.578;-4.520;2023-05-27T13:20:15;8.70;;;2.83;;
75614;SDS011;64199;48.578;-4.520;2023-05-27T13:22:42;8.38;;;2.70;;
75614;SDS011;64199;48.578;-4.520;2023-05-27T13:25:09;5.65;;;2.72;;
75614;SDS011;64199;48.578;-4.520;2023-05-27T13:27:36;7.57;;;3.10;;
75614;SDS011;64199;48.578;-4.520;2023-05-27T13:30:02;6.00;;;3.00;;
75614;SDS011;64199;48.578;-4.520;2023-05-27T13:32:29;6.70;;;2.67;;
75614;SDS011;64199;48.578;-4.520;2023-05-27T13:34:55;7.47;;;3.10;;
75614;SDS011;64199;48.578;-4.520;2023-05-27T13:37:21;7.63;;;3.17;;
75614;SDS011;64199;48.578;-4.520;2023-05-27T13:39:47;10.23;;;3.10;;
75614;SDS011;64199;48.578;-4.520;2023-05-27T13:42:13;7.45;;;2.95;;
75614;SDS011;64199;48.578;-4.520;2023-05-27T13:44:39;7.15;;;2.95;;
75614;SDS011;64199;48.578;-4.520;2023-05-27T13:47:06;8.25;;;3.28;;
75614;SDS011;64199;48.578;-4.520;2023-05-27T13:49:32;6.85;;;3.03;;
75614;SDS011;64199;48.578;-4.520;2023-05-27T13:51:57;7.82;;;3.33;;
75614;SDS011;64199;48.578;-4.520;2023-05-27T13:54:23;7.05;;;3.50;;
75614;SDS011;64199;48.578;-4.520;2023-05-27T13:56:49;7.75;;;3.00;;
75614;SDS011;64199;48.578;-4.520;2023-05-27T13:59:15;6.45;;;2.72;;
75614;SDS011;64199;48.578;-4.520;2023-05-27T14:01:41;6.75;;;2.75;;
75614;SDS011;64199;48.578;-4.520;2023-05-27T14:04:07;5.78;;;2.85;;
75614;SDS011;64199;48.578;-4.520;2023-05-27T14:06:33;6.93;;;3.10;;
75614;SDS011;64199;48.578;-4.520;2023-05-27T14:09:00;6.65;;;2.75;;
75614;SDS011;64199;48.578;-4.520;2023-05-27T14:11:26;6.20;;;2.97;;
75614;SDS011;64199;48.578;-4.520;2023-05-27T14:13:53;7.32;;;3.17;;
75614;SDS011;64199;48.578;-4.520;2023-05-27T14:16:20;7.67;;;2.57;;
75614;SDS011;64199;48.578;-4.520;2023-05-27T14:18:47;9.50;;;3.42;;
75614;SDS011;64199;48.578;-4.520;2023-05-27T14:21:14;7.93;;;3.58;;
75614;SDS011;64199;48.578;-4.520;2023-05-27T14:23:41;9.23;;;3.03;;
75614;SDS011;64199;48.578;-4.520;2023-05-27T14:26:07;7.75;;;2.67;;
75614;SDS011;64199;48.578;-4.520;2023-05-27T14:28:33;5.07;;;2.60;;
75614;SDS011;64199;48.578;-4.520;2023-05-27T14:30:59;8.13;;;2.92;;
75614;SDS011;64199;48.578;-4.520;2023-05-27T14:33:25;11.48;;;3.80;;
75614;SDS011;64199;48.578;-4.520;2023-05-27T14:35:51;9.00;;;2.65;;
75614;SDS011;64199;48.578;-4.520;2023-05-27T14:38:17;7.45;;;3.10;;
75614;SDS011;64199;48.578;-4.520;2023-05-27T14:40:43;9.07;;;3.63;;
75614;SDS011;64199;48.578;-4.520;2023-05-27T14:43:12;9.02;;;3.10;;
75614;SDS011;64199;48.578;-4.520;2023-05-27T14:45:39;8.63;;;3.55;;
75614;SDS011;64199;48.578;-4.520;2023-05-27T14:48:06;6.18;;;2.92;;
75614;SDS011;64199;48.578;-4.520;2023-05-27T14:50:32;8.18;;;3.30;;
75614;SDS011;64199;48.578;-4.520;2023-05-27T14:52:58;7.22;;;3.20;;
75614;SDS011;64199;48.578;-4.520;2023-05-27T14:55:24;8.35;;;3.03;;
75614;SDS011;64199;48.578;-4.520;2023-05-27T14:57:50;5.72;;;2.60;;
75614;SDS011;64199;48.578;-4.520;2023-05-27T15:00:16;8.98;;;3.03;;